Time;durP1;ratioP1;P1;durP2;ratioP2;P2;SDS_P1;SDS_P2;PMS_P1;PMS_P2;Temp;Humidity;BMP_temperature;BMP_pressure;BME280_temperature;BME280_humidity;BME280_pressure;Samples;Min_cycle;Max_cycle;Signal;HPM_P1;HPM_P2
2023/06/16 00:00:55;;;;;;;3.88;2.50;;;23.40;64.30;;;;;;5012357;28;20081;-72
2023/06/16 00:03:21;;;;;;;4.97;2.80;;;23.40;64.40;;;;;;5012855;28;20022;-71
2023/06/16 00:05:48;;;;;;;2.50;2.30;;;23.30;64.40;;;;;;5020926;28;20049;-71
2023/06/16 00:08:15;;;;;;;3.78;2.75;;;23.30;64.50;;;;;;5032681;28;20527;-71
2023/06/16 00:10:40;;;;;;;3.30;2.80;;;23.30;64.50;;;;;;5032546;28;20029;-73
2023/06/16 00:13:07;;;;;;;3.33;2.60;;;23.30;64.60;;;;;;5032532;28;20112;-72
2023/06/16 00:15:32;;;;;;;4.20;2.60;;;23.30;64.70;;;;;;5014392;28;20405;-73
2023/06/16 00:18:00;;;;;;;7.95;2.80;;;23.20;64.70;;;;;;5032787;28;20033;-73
2023/06/16 00:20:25;;;;;;;3.92;2.65;;;23.20;64.70;;;;;;5014810;28;20079;-72
2023/06/16 00:22:51;;;;;;;3.22;2.70;;;23.20;64.80;;;;;;5032402;28;20030;-72
2023/06/16 00:25:18;;;;;;;3.35;2.60;;;23.20;64.80;;;;;;5031670;28;20033;-73
2023/06/16 00:27:43;;;;;;;4.45;2.67;;;23.20;64.90;;;;;;5031057;28;20026;-72
2023/06/16 00:30:11;;;;;;;3.78;2.53;;;23.20;65.00;;;;;;5014357;28;20033;-73
2023/06/16 00:32:37;;;;;;;4.10;2.75;;;23.20;64.80;;;;;;5031210;28;20411;-72
2023/06/16 00:35:02;;;;;;;5.70;2.90;;;23.20;64.80;;;;;;5032392;28;20085;-73
2023/06/16 00:37:28;;;;;;;3.92;2.70;;;23.20;64.80;;;;;;5031419;28;20494;-73
2023/06/16 00:39:55;;;;;;;5.80;2.80;;;23.20;64.80;;;;;;5032154;28;20041;-72
2023/06/16 00:42:20;;;;;;;3.47;2.78;;;23.20;64.80;;;;;;5033176;28;20183;-73
2023/06/16 00:44:46;;;;;;;3.95;2.60;;;23.20;64.80;;;;;;5018338;28;20120;-72
2023/06/16 00:47:12;;;;;;;3.75;2.80;;;23.20;64.80;;;;;;5035461;28;20383;-72
2023/06/16 00:49:38;;;;;;;5.57;2.78;;;23.20;64.80;;;;;;5014236;28;20172;-72
2023/06/16 00:52:06;;;;;;;3.80;2.72;;;23.20;64.80;;;;;;5015902;28;20062;-72
2023/06/16 00:54:32;;;;;;;4.35;2.55;;;23.20;64.80;;;;;;5016198;28;20388;-73
2023/06/16 00:56:58;;;;;;;3.78;2.78;;;23.20;64.80;;;;;;5015411;28;20038;-73
2023/06/16 00:59:26;;;;;;;3.75;3.00;;;23.30;64.80;;;;;;5015902;28;20038;-73
2023/06/16 01:01:54;;;;;;;5.88;3.00;;;23.30;64.70;;;;;;4997854;28;20041;-72
2023/06/16 01:04:22;;;;;;;3.78;2.70;;;23.30;64.70;;;;;;5015852;28;20026;-73
2023/06/16 01:07:11;;;;;;;3.78;2.72;;;23.30;64.70;;;;;;4997665;28;20144;-72
2023/06/16 01:09:43;;;;;;;3.10;2.70;;;23.30;64.70;;;;;;5015516;28;20031;-73
2023/06/16 01:12:24;;;;;;;3.92;2.85;;;23.30;64.60;;;;;;5015693;28;20109;-73
2023/06/16 01:15:13;;;;;;;3.75;2.60;;;23.30;64.60;;;;;;4998525;28;20022;-72
2023/06/16 01:17:43;;;;;;;4.03;2.70;;;23.20;64.60;;;;;;5015298;28;20037;-73
2023/06/16 01:20:32;;;;;;;3.92;2.78;;;23.20;64.60;;;;;;5015633;28;20100;-73
2023/06/16 01:23:14;;;;;;;4.55;2.75;;;23.20;64.60;;;;;;4987138;28;20080;-73
2023/06/16 01:25:43;;;;;;;3.63;2.70;;;23.20;64.60;;;;;;5015184;28;20057;-73
2023/06/16 01:28:10;;;;;;;3.20;2.60;;;23.20;64.60;;;;;;5015004;28;20113;-73
2023/06/16 01:30:40;;;;;;;3.22;2.70;;;23.20;64.60;;;;;;4997756;28;20072;-72
2023/06/16 01:33:06;;;;;;;5.18;2.85;;;23.20;64.60;;;;;;5015753;28;20029;-72
2023/06/16 01:35:33;;;;;;;4.43;3.00;;;23.20;64.60;;;;;;5015360;28;20049;-73
2023/06/16 01:38:00;;;;;;;5.38;3.00;;;23.20;64.50;;;;;;5014429;28;20026;-73
2023/06/16 01:40:27;;;;;;;4.22;3.03;;;23.10;64.60;;;;;;5015090;28;20064;-71
2023/06/16 01:42:55;;;;;;;4.40;3.00;;;23.10;64.60;;;;;;5014859;28;20111;-71
2023/06/16 01:45:22;;;;;;;3.97;2.90;;;23.10;65.20;;;;;;4997284;28;20396;-71
2023/06/16 01:47:49;;;;;;;5.95;3.00;;;23.00;64.60;;;;;;5014536;28;20453;-72
2023/06/16 01:50:15;;;;;;;4.30;2.65;;;23.00;64.70;;;;;;5014572;28;20113;-72
2023/06/16 01:52:40;;;;;;;3.08;2.78;;;23.00;64.80;;;;;;5014812;28;20105;-71
2023/06/16 01:55:06;;;;;;;3.08;2.67;;;23.00;64.90;;;;;;5013871;28;20033;-72
2023/06/16 01:57:33;;;;;;;3.38;2.65;;;22.90;64.80;;;;;;5014400;28;20033;-72
2023/06/16 02:00:23;;;;;;;3.70;2.55;;;22.90;64.80;;;;;;4996757;28;20041;-72
2023/06/16 02:03:10;;;;;;;3.33;2.72;;;22.90;65.00;;;;;;5014412;28;20100;-72
2023/06/16 02:05:37;;;;;;;3.53;2.63;;;22.90;64.90;;;;;;4997030;28;20056;-72
2023/06/16 02:08:04;;;;;;;3.92;2.50;;;22.90;64.90;;;;;;5014306;28;20038;-72
2023/06/16 02:10:30;;;;;;;6.10;2.92;;;23.00;65.00;;;;;;5014331;28;20384;-73
2023/06/16 02:12:56;;;;;;;3.33;2.88;;;23.00;64.90;;;;;;5014499;28;20032;-72
2023/06/16 02:15:22;;;;;;;3.90;2.70;;;23.00;64.90;;;;;;5013846;28;20463;-72
2023/06/16 02:17:50;;;;;;;5.03;2.90;;;23.00;64.90;;;;;;5012988;28;20080;-72
2023/06/16 02:20:16;;;;;;;3.28;2.80;;;23.00;64.90;;;;;;4996300;28;20025;-72
2023/06/16 02:22:41;;;;;;;4.03;2.85;;;22.90;64.80;;;;;;5014200;28;20030;-72
2023/06/16 02:25:07;;;;;;;4.05;2.85;;;23.00;65.00;;;;;;5014455;28;20025;-72
2023/06/16 02:27:33;;;;;;;3.92;2.92;;;23.00;64.90;;;;;;5013819;28;20384;-72
2023/06/16 02:29:58;;;;;;;4.20;2.70;;;23.00;64.90;;;;;;5013652;28;20065;-72
2023/06/16 02:32:25;;;;;;;3.33;2.45;;;23.00;64.90;;;;;;5014171;28;20526;-72
2023/06/16 02:34:52;;;;;;;5.25;2.72;;;23.10;64.90;;;;;;5014007;28;20464;-72
2023/06/16 02:37:20;;;;;;;3.80;2.70;;;23.00;64.80;;;;;;5013983;28;20025;-72
2023/06/16 02:39:46;;;;;;;3.45;2.70;;;23.10;64.80;;;;;;4995723;28;20029;-71
2023/06/16 02:42:12;;;;;;;3.67;2.78;;;23.10;64.80;;;;;;5013848;28;20468;-72
2023/06/16 02:44:38;;;;;;;4.90;2.63;;;23.10;64.70;;;;;;5013871;28;20026;-72
2023/06/16 02:47:04;;;;;;;3.00;2.63;;;23.10;64.70;;;;;;5013865;28;20515;-72
2023/06/16 02:49:31;;;;;;;2.95;2.40;;;23.10;64.60;;;;;;5013119;28;20032;-72
2023/06/16 02:51:57;;;;;;;3.00;2.50;;;23.10;64.60;;;;;;5013291;28;20036;-71
2023/06/16 02:54:22;;;;;;;3.85;2.10;;;23.10;64.60;;;;;;5013810;28;20116;-72
2023/06/16 02:56:48;;;;;;;3.10;2.45;;;23.00;64.60;;;;;;4996143;28;20476;-72
2023/06/16 02:59:14;;;;;;;4.05;3.17;;;23.00;64.60;;;;;;5013466;28;20034;-72
2023/06/16 03:01:39;;;;;;;3.20;2.60;;;22.90;64.60;;;;;;5013233;28;20034;-72
2023/06/16 03:04:05;;;;;;;4.43;2.40;;;22.90;64.60;;;;;;5012995;28;20432;-72
2023/06/16 03:06:34;;;;;;;3.10;2.40;;;22.80;64.70;;;;;;5027672;28;20377;-71
2023/06/16 03:09:06;;;;;;;2.78;2.30;;;22.70;64.70;;;;;;5033158;28;20523;-70
2023/06/16 03:11:32;;;;;;;2.60;2.15;;;22.70;64.90;;;;;;5032851;28;20447;-73
2023/06/16 03:13:58;;;;;;;3.33;2.60;;;22.70;65.10;;;;;;5032892;28;20038;-71
2023/06/16 03:16:26;;;;;;;2.65;2.25;;;22.70;65.10;;;;;;5032844;28;20052;-71
2023/06/16 03:18:53;;;;;;;5.07;2.58;;;22.70;65.00;;;;;;5032918;28;20025;-71
2023/06/16 03:21:18;;;;;;;3.47;2.28;;;22.70;65.00;;;;;;5032945;28;20032;-72
2023/06/16 03:23:44;;;;;;;2.85;2.55;;;22.70;64.90;;;;;;5033101;28;20380;-71
2023/06/16 03:26:10;;;;;;;3.50;2.42;;;22.80;64.90;;;;;;5033201;28;20025;-72
2023/06/16 03:28:36;;;;;;;4.10;3.10;;;22.80;64.90;;;;;;5032641;28;20168;-71
2023/06/16 03:31:01;;;;;;;3.95;2.22;;;22.90;64.80;;;;;;5032879;28;20515;-72
2023/06/16 03:33:27;;;;;;;4.80;2.50;;;22.90;64.60;;;;;;5014683;28;20056;-71
2023/06/16 03:35:53;;;;;;;4.30;2.60;;;22.90;64.50;;;;;;5015106;28;20029;-71
2023/06/16 03:38:20;;;;;;;2.80;2.60;;;23.00;64.40;;;;;;5032863;28;20033;-72
2023/06/16 03:40:46;;;;;;;3.03;2.72;;;23.00;64.20;;;;;;5032570;28;20025;-72
2023/06/16 03:43:11;;;;;;;5.57;2.50;;;22.90;64.10;;;;;;5032422;28;20036;-70
2023/06/16 03:45:37;;;;;;;3.20;2.40;;;23.00;64.00;;;;;;5032715;28;20033;-71
2023/06/16 03:48:03;;;;;;;3.42;2.65;;;22.90;63.90;;;;;;5032182;28;20029;-72
2023/06/16 03:50:28;;;;;;;2.40;2.20;;;22.90;64.20;;;;;;5015183;28;20040;-72
2023/06/16 03:52:54;;;;;;;3.92;2.50;;;22.90;63.80;;;;;;5032272;28;20430;-72
2023/06/16 03:55:20;;;;;;;3.25;2.38;;;22.90;63.80;;;;;;5032954;28;20468;-71
2023/06/16 03:57:45;;;;;;;3.72;2.60;;;22.90;63.60;;;;;;5032614;28;20072;-71
2023/06/16 04:00:11;;;;;;;6.68;2.63;;;22.90;63.60;;;;;;5032812;28;20026;-73
2023/06/16 04:02:37;;;;;;;2.65;2.45;;;22.90;63.60;;;;;;5032035;28;20030;-71
2023/06/16 04:05:03;;;;;;;4.28;2.60;;;22.90;63.60;;;;;;5014580;28;20537;-71
2023/06/16 04:07:30;;;;;;;3.53;2.78;;;22.90;64.10;;;;;;5014603;28;20036;-72
2023/06/16 04:09:56;;;;;;;5.60;4.38;;;23.00;63.50;;;;;;5032330;28;20076;-72
2023/06/16 04:12:21;;;;;;;4.68;3.38;;;23.00;63.30;;;;;;5032526;28;20029;-71
2023/06/16 04:14:47;;;;;;;4.00;2.95;;;23.00;63.20;;;;;;5032704;28;20025;-71
2023/06/16 04:17:13;;;;;;;4.45;3.50;;;23.10;63.20;;;;;;5032706;28;20468;-72
2023/06/16 04:19:38;;;;;;;4.30;3.15;;;23.10;63.10;;;;;;5036523;28;20075;-73
2023/06/16 04:22:04;;;;;;;3.85;3.08;;;23.10;62.90;;;;;;5036210;28;20155;-72
2023/06/16 04:24:30;;;;;;;2.33;2.10;;;23.10;62.90;;;;;;5035964;28;20087;-72
2023/06/16 04:26:58;;;;;;;4.82;3.15;;;23.20;62.60;;;;;;5036222;28;20070;-73
2023/06/16 04:29:27;;;;;;;2.97;2.33;;;23.20;62.40;;;;;;5035401;28;20112;-72
2023/06/16 04:31:53;;;;;;;4.38;2.88;;;23.30;62.40;;;;;;5017915;28;20053;-72
2023/06/16 04:34:18;;;;;;;2.58;2.38;;;23.30;62.30;;;;;;5035790;28;20111;-72
2023/06/16 04:36:44;;;;;;;3.63;2.65;;;23.30;62.20;;;;;;5035995;28;20025;-73
2023/06/16 04:39:14;;;;;;;3.08;2.45;;;23.30;62.10;;;;;;5035588;28;20432;-71
2023/06/16 04:41:42;;;;;;;4.25;3.10;;;23.30;62.00;;;;;;5035614;28;20024;-71
2023/06/16 04:44:09;;;;;;;3.95;2.88;;;23.30;61.90;;;;;;5035342;28;20068;-73
2023/06/16 04:46:34;;;;;;;4.82;3.00;;;23.30;61.90;;;;;;5036039;28;20030;-73
2023/06/16 04:49:00;;;;;;;4.10;2.33;;;23.40;61.90;;;;;;5017784;28;20034;-71
2023/06/16 04:51:26;;;;;;;3.60;2.40;;;23.40;61.80;;;;;;5035565;28;20028;-71
2023/06/16 04:53:53;;;;;;;3.40;2.47;;;23.50;61.60;;;;;;5035214;28;20022;-72
2023/06/16 04:56:19;;;;;;;2.47;2.00;;;23.40;61.50;;;;;;5017846;28;20041;-71
2023/06/16 04:58:44;;;;;;;3.97;2.30;;;23.50;61.30;;;;;;5035398;28;20079;-71
2023/06/16 05:01:11;;;;;;;2.95;2.40;;;23.50;61.70;;;;;;5035442;28;20375;-70
2023/06/16 05:03:36;;;;;;;3.70;2.20;;;23.40;60.90;;;;;;5017892;28;20434;-72
2023/06/16 05:06:03;;;;;;;3.15;2.47;;;23.40;60.80;;;;;;5016869;28;20103;-72
2023/06/16 05:08:29;;;;;;;4.20;2.50;;;23.30;60.70;;;;;;5035470;28;20030;-71
2023/06/16 05:10:55;;;;;;;6.28;3.92;;;23.30;60.80;;;;;;5017459;28;20034;-71
2023/06/16 05:13:21;;;;;;;7.00;5.25;;;23.30;60.90;;;;;;5034917;28;20086;-71
2023/06/16 05:15:46;;;;;;;5.00;3.42;;;23.30;60.90;;;;;;5034989;28;20021;-72
2023/06/16 05:18:12;;;;;;;7.18;3.47;;;23.40;60.90;;;;;;5017198;28;20387;-72
2023/06/16 05:20:38;;;;;;;5.57;3.00;;;23.40;60.80;;;;;;5035622;28;20037;-72
2023/06/16 05:23:04;;;;;;;4.53;3.00;;;23.40;60.80;;;;;;5017388;28;20032;-73
2023/06/16 05:25:30;;;;;;;3.88;2.55;;;23.40;60.70;;;;;;5034634;28;20040;-72
2023/06/16 05:27:56;;;;;;;2.95;2.13;;;23.40;60.50;;;;;;5034691;28;20461;-72
2023/06/16 05:30:22;;;;;;;3.70;2.30;;;23.40;60.50;;;;;;5034826;28;20064;-73
2023/06/16 05:32:48;;;;;;;5.47;2.80;;;23.50;61.00;;;;;;5034869;28;20051;-72
2023/06/16 05:35:13;;;;;;;2.42;2.08;;;23.50;60.50;;;;;;5034595;28;20021;-73
2023/06/16 05:37:39;;;;;;;2.33;2.13;;;23.50;60.30;;;;;;5035389;28;20100;-71
2023/06/16 05:40:06;;;;;;;4.97;2.40;;;23.50;60.00;;;;;;5017626;28;20040;-72
2023/06/16 05:42:33;;;;;;;2.30;1.88;;;23.50;60.00;;;;;;5036293;28;20044;-71
2023/06/16 05:44:58;;;;;;;3.33;2.40;;;23.50;60.00;;;;;;5018104;28;20045;-72
2023/06/16 05:47:24;;;;;;;4.05;2.60;;;23.50;59.90;;;;;;5036085;28;20033;-73
2023/06/16 05:49:50;;;;;;;3.97;2.33;;;23.50;59.80;;;;;;5016738;28;20037;-71
2023/06/16 05:52:16;;;;;;;5.70;2.50;;;23.50;59.90;;;;;;5025646;28;20030;-71
2023/06/16 05:54:41;;;;;;;2.60;2.17;;;23.50;59.90;;;;;;5010779;28;20034;-72
2023/06/16 05:57:07;;;;;;;3.10;2.40;;;23.50;59.90;;;;;;5013782;28;20120;-71
2023/06/16 05:59:36;;;;;;;2.63;2.28;;;23.50;59.90;;;;;;5014105;28;20034;-72
2023/06/16 06:02:02;;;;;;;3.10;2.58;;;23.50;59.70;;;;;;5014532;28;20057;-72
2023/06/16 06:04:32;;;;;;;2.05;1.85;;;23.50;59.70;;;;;;5014726;28;20097;-72
2023/06/16 06:06:58;;;;;;;2.78;2.10;;;23.40;59.70;;;;;;5036200;28;20049;-71
2023/06/16 06:09:24;;;;;;;2.10;1.90;;;23.40;59.80;;;;;;5032135;28;20042;-72
2023/06/16 06:11:51;;;;;;;5.55;2.60;;;23.40;59.70;;;;;;5016034;28;20050;-71
2023/06/16 06:14:17;;;;;;;4.72;2.47;;;23.40;59.70;;;;;;5034236;28;20033;-71
2023/06/16 06:16:43;;;;;;;4.75;2.70;;;23.50;59.80;;;;;;5033756;28;20057;-73
2023/06/16 06:19:09;;;;;;;3.47;2.55;;;23.50;59.70;;;;;;5015991;28;20072;-70
2023/06/16 06:21:35;;;;;;;3.35;2.20;;;23.60;59.70;;;;;;5033729;28;20053;-72
2023/06/16 06:24:05;;;;;;;3.55;2.50;;;23.60;59.50;;;;;;5033924;28;20030;-71
2023/06/16 06:26:30;;;;;;;3.60;2.00;;;23.60;59.50;;;;;;5032666;28;20029;-73
2023/06/16 06:28:56;;;;;;;2.47;2.20;;;23.60;59.40;;;;;;5016097;28;20426;-72
2023/06/16 06:31:22;;;;;;;2.75;2.40;;;23.60;59.20;;;;;;5033400;28;20034;-72
2023/06/16 06:33:47;;;;;;;6.05;2.38;;;23.60;59.20;;;;;;5034229;28;20025;-72
2023/06/16 06:36:26;;;;;;;3.15;2.25;;;23.70;59.20;;;;;;5033669;28;20075;-72
2023/06/16 06:38:52;;;;;;;3.35;2.45;;;23.70;59.50;;;;;;5033189;28;20025;-71
2023/06/16 06:41:19;;;;;;;2.55;2.20;;;23.70;58.90;;;;;;5032822;28;20380;-74
2023/06/16 06:43:44;;;;;;;2.20;2.00;;;23.80;58.70;;;;;;5033648;28;20029;-72
2023/06/16 06:46:10;;;;;;;2.72;2.08;;;23.80;58.60;;;;;;5033690;28;20048;-73
2023/06/16 06:48:35;;;;;;;4.97;2.33;;;23.80;58.50;;;;;;5033277;28;20025;-72
2023/06/16 06:51:01;;;;;;;3.88;2.28;;;23.90;58.50;;;;;;5033237;28;20029;-73
2023/06/16 06:53:27;;;;;;;4.05;2.20;;;23.90;58.30;;;;;;5033154;28;20030;-72
2023/06/16 06:55:53;;;;;;;3.50;2.45;;;23.90;58.30;;;;;;5033381;28;20056;-71
2023/06/16 06:58:18;;;;;;;3.70;2.05;;;23.90;58.10;;;;;;5033189;28;20048;-72
2023/06/16 07:00:44;;;;;;;2.70;1.75;;;23.90;57.80;;;;;;5033336;28;20033;-72
2023/06/16 07:03:11;;;;;;;3.60;2.33;;;23.90;57.80;;;;;;5033154;28;20467;-73
2023/06/16 07:05:37;;;;;;;3.75;2.10;;;24.00;57.80;;;;;;5033352;28;20050;-73
2023/06/16 07:08:03;;;;;;;2.80;2.05;;;24.00;57.80;;;;;;5032817;28;20028;-73
2023/06/16 07:10:32;;;;;;;1.95;1.75;;;24.00;57.90;;;;;;5012056;28;20136;-73
2023/06/16 07:12:58;;;;;;;3.83;2.20;;;24.10;57.80;;;;;;4996009;28;20033;-73
2023/06/16 07:15:24;;;;;;;2.28;1.90;;;24.10;57.70;;;;;;5013088;28;20026;-74
2023/06/16 07:17:49;;;;;;;2.28;2.05;;;24.10;57.50;;;;;;4995720;28;20522;-74
2023/06/16 07:20:15;;;;;;;2.15;1.95;;;24.10;57.40;;;;;;5012769;28;20353;-74
2023/06/16 07:22:42;;;;;;;4.47;2.22;;;24.20;57.30;;;;;;4995740;28;20025;-71
2023/06/16 07:25:08;;;;;;;3.42;2.33;;;24.20;57.20;;;;;;5013307;28;20057;-73
2023/06/16 07:27:34;;;;;;;2.88;1.90;;;24.20;57.00;;;;;;5013320;28;20129;-77
2023/06/16 07:30:00;;;;;;;2.95;2.30;;;24.20;56.90;;;;;;5012843;28;20555;-77
2023/06/16 07:32:26;;;;;;;2.63;2.22;;;24.20;56.70;;;;;;5013027;28;20035;-76
2023/06/16 07:34:52;;;;;;;4.45;2.10;;;24.20;56.70;;;;;;4995376;28;20030;-75
2023/06/16 07:37:18;;;;;;;3.40;2.15;;;24.30;56.60;;;;;;5012820;28;20026;-78
2023/06/16 07:39:44;;;;;;;3.63;2.30;;;24.30;56.50;;;;;;5024982;28;20038;-77
2023/06/16 07:42:10;;;;;;;4.80;2.30;;;24.30;56.30;;;;;;5015221;28;20109;-75
2023/06/16 07:44:35;;;;;;;3.20;2.10;;;24.30;56.50;;;;;;5031182;28;20136;-75
2023/06/16 07:47:01;;;;;;;2.40;1.75;;;24.20;56.40;;;;;;5032708;28;20038;-74
2023/06/16 07:49:29;;;;;;;2.50;2.22;;;24.30;56.50;;;;;;5014806;28;20041;-74
2023/06/16 07:51:54;;;;;;;2.90;2.20;;;24.30;56.50;;;;;;5033476;28;20483;-74
2023/06/16 07:54:20;;;;;;;5.20;2.10;;;24.30;56.50;;;;;;5038154;28;20030;-74
2023/06/16 07:56:47;;;;;;;2.63;2.17;;;24.40;56.60;;;;;;5019969;28;20484;-75
2023/06/16 07:59:12;;;;;;;3.38;2.45;;;24.40;56.40;;;;;;5037711;28;20033;-74
2023/06/16 08:01:38;;;;;;;3.25;1.98;;;24.40;56.30;;;;;;5037163;28;20439;-73
2023/06/16 08:04:04;;;;;;;2.42;2.10;;;24.40;56.30;;;;;;5037462;28;20026;-72
2023/06/16 08:06:30;;;;;;;2.85;2.10;;;24.40;56.20;;;;;;5037805;28;20053;-74
2023/06/16 08:08:56;;;;;;;3.58;2.08;;;24.50;56.30;;;;;;5036979;28;20037;-75
2023/06/16 08:11:22;;;;;;;2.45;2.25;;;24.50;56.30;;;;;;5019986;28;20067;-73
2023/06/16 08:13:47;;;;;;;3.40;2.00;;;24.50;56.30;;;;;;5037109;28;20025;-73
2023/06/16 08:16:13;;;;;;;2.65;2.20;;;24.60;56.30;;;;;;5037214;28;20456;-73
2023/06/16 08:18:38;;;;;;;2.80;1.88;;;24.60;56.10;;;;;;5019762;28;20033;-73
2023/06/16 08:21:06;;;;;;;4.72;2.35;;;24.60;56.00;;;;;;5037167;28;20033;-75
2023/06/16 08:23:32;;;;;;;2.85;2.30;;;24.70;56.00;;;;;;5037475;28;20028;-74
2023/06/16 08:25:59;;;;;;;2.50;1.85;;;24.70;56.00;;;;;;5037346;28;20030;-74
2023/06/16 08:28:25;;;;;;;3.33;2.22;;;24.70;55.90;;;;;;5037066;28;20032;-74
2023/06/16 08:30:51;;;;;;;2.95;2.20;;;24.70;55.70;;;;;;5019288;28;20030;-74
2023/06/16 08:33:17;;;;;;;2.47;2.08;;;24.70;55.70;;;;;;5036963;28;20537;-73
2023/06/16 08:35:43;;;;;;;2.40;2.00;;;24.70;55.70;;;;;;5037066;28;20357;-73
2023/06/16 08:38:08;;;;;;;3.38;2.20;;;24.80;55.70;;;;;;5037081;28;20373;-76
2023/06/16 08:40:34;;;;;;;2.50;1.98;;;24.70;55.60;;;;;;5036947;28;20416;-74
2023/06/16 08:43:05;;;;;;;2.53;2.00;;;24.80;55.30;;;;;;5036925;28;20028;-74
2023/06/16 08:45:30;;;;;;;2.28;2.08;;;24.80;55.20;;;;;;5036662;28;20021;-74
2023/06/16 08:47:57;;;;;;;2.25;2.00;;;24.80;55.20;;;;;;5018787;28;20030;-75
2023/06/16 08:50:23;;;;;;;2.20;1.80;;;24.90;55.30;;;;;;5037141;28;20037;-74
2023/06/16 08:52:52;;;;;;;4.68;2.10;;;24.90;55.30;;;;;;5018998;28;20053;-72
2023/06/16 08:55:19;;;;;;;3.08;2.00;;;24.90;55.20;;;;;;5036325;28;20097;-74
2023/06/16 08:57:51;;;;;;;3.00;2.13;;;25.00;55.10;;;;;;5036664;28;20140;-75
2023/06/16 09:00:18;;;;;;;3.17;1.88;;;25.00;55.00;;;;;;5036336;28;20025;-74
2023/06/16 09:02:48;;;;;;;2.50;2.00;;;25.00;55.00;;;;;;5035893;28;20025;-74
2023/06/16 09:05:16;;;;;;;3.38;2.10;;;25.00;54.90;;;;;;5036660;28;20042;-75
2023/06/16 09:07:41;;;;;;;2.50;2.30;;;25.00;55.00;;;;;;5036307;28;20036;-74
2023/06/16 09:10:08;;;;;;;2.40;2.00;;;25.10;55.00;;;;;;5018684;28;20037;-75
2023/06/16 09:12:35;;;;;;;3.03;2.22;;;25.00;54.80;;;;;;5036234;28;20111;-74
2023/06/16 09:15:01;;;;;;;2.75;2.10;;;25.10;54.70;;;;;;5036049;28;20033;-74
2023/06/16 09:17:30;;;;;;;3.90;2.30;;;25.10;54.50;;;;;;5035866;28;20028;-75
2023/06/16 09:19:56;;;;;;;2.92;2.28;;;25.10;54.50;;;;;;5035918;28;20029;-74
2023/06/16 09:22:26;;;;;;;3.20;2.20;;;25.00;54.40;;;;;;5035874;28;20040;-74
2023/06/16 09:24:56;;;;;;;3.00;1.95;;;25.10;54.30;;;;;;5035735;28;20383;-74
2023/06/16 09:27:23;;;;;;;3.13;2.22;;;25.00;53.90;;;;;;5035780;28;20045;-73
2023/06/16 09:29:57;;;;;;;3.20;2.00;;;25.00;53.90;;;;;;5035791;28;20045;-73
2023/06/16 09:32:23;;;;;;;4.50;2.08;;;25.00;53.40;;;;;;5018436;28;20026;-73
2023/06/16 09:34:49;;;;;;;2.00;1.90;;;25.00;53.80;;;;;;5035473;28;20100;-75
2023/06/16 09:37:19;;;;;;;2.72;1.98;;;25.10;53.80;;;;;;5017803;28;20030;-74
2023/06/16 09:39:46;;;;;;;3.17;1.90;;;25.10;53.70;;;;;;5017838;28;20037;-74
2023/06/16 09:42:12;;;;;;;3.20;2.05;;;25.10;53.40;;;;;;5035664;28;20740;-75
2023/06/16 09:44:40;;;;;;;3.58;2.20;;;25.10;53.40;;;;;;5036026;28;20055;-74
2023/06/16 09:47:06;;;;;;;2.63;2.30;;;25.10;53.30;;;;;;5017616;28;20037;-72
2023/06/16 09:49:32;;;;;;;4.28;2.35;;;25.20;53.20;;;;;;5035279;28;20491;-73
2023/06/16 09:51:58;;;;;;;2.75;2.13;;;25.20;53.20;;;;;;5035381;28;20032;-73
2023/06/16 09:54:26;;;;;;;3.70;1.90;;;25.20;53.00;;;;;;5036093;28;20060;-73
2023/06/16 09:56:56;;;;;;;2.85;1.80;;;25.20;53.00;;;;;;5035440;28;20025;-74
2023/06/16 09:59:23;;;;;;;2.22;2.03;;;25.20;52.60;;;;;;5035077;28;20045;-74
2023/06/16 10:01:52;;;;;;;3.20;2.60;;;25.20;52.60;;;;;;5035356;28;20448;-74
2023/06/16 10:04:20;;;;;;;2.17;1.98;;;25.10;52.60;;;;;;5035319;28;20032;-74
2023/06/16 10:07:07;;;;;;;2.95;2.08;;;25.20;52.70;;;;;;5033660;28;20056;-74
2023/06/16 10:09:39;;;;;;;2.80;1.77;;;25.30;52.30;;;;;;5035384;28;20033;-76
2023/06/16 10:12:07;;;;;;;2.25;1.77;;;25.30;52.50;;;;;;5035395;28;20018;-73
2023/06/16 10:14:34;;;;;;;3.90;2.10;;;25.30;52.40;;;;;;5034599;28;20128;-74
2023/06/16 10:17:01;;;;;;;3.58;2.35;;;25.30;52.30;;;;;;5034700;28;20376;-74
2023/06/16 10:19:32;;;;;;;2.83;1.83;;;25.30;52.20;;;;;;5035045;28;20030;-73
2023/06/16 10:21:59;;;;;;;3.08;2.22;;;25.40;52.30;;;;;;5035475;28;20065;-75
2023/06/16 10:24:25;;;;;;;3.28;1.85;;;25.40;52.20;;;;;;5035079;28;20325;-73
2023/06/16 10:26:51;;;;;;;1.85;1.75;;;25.30;51.90;;;;;;5035156;28;20109;-74
2023/06/16 10:29:20;;;;;;;3.30;2.00;;;25.30;52.00;;;;;;5034938;28;20063;-74
2023/06/16 10:31:49;;;;;;;2.10;1.80;;;25.30;52.00;;;;;;5034550;28;20116;-74
2023/06/16 10:34:19;;;;;;;2.88;2.28;;;25.30;51.70;;;;;;5034375;28;20028;-74
2023/06/16 10:36:45;;;;;;;2.15;1.95;;;25.30;51.70;;;;;;5017187;28;20025;-73
2023/06/16 10:39:12;;;;;;;2.92;2.38;;;25.30;51.60;;;;;;5034829;28;20509;-74
2023/06/16 10:41:57;;;;;;;3.15;2.15;;;25.30;51.70;;;;;;5034547;28;20148;-75
2023/06/16 10:44:29;;;;;;;2.65;1.92;;;25.30;51.20;;;;;;5034540;28;20029;-73
2023/06/16 10:47:12;;;;;;;1.85;1.75;;;25.40;51.50;;;;;;5016527;28;20064;-75
2023/06/16 10:49:47;;;;;;;4.93;1.92;;;25.40;51.10;;;;;;5031884;28;20064;-74
2023/06/16 10:52:30;;;;;;;3.38;2.40;;;25.50;51.30;;;;;;5033495;28;20033;-75
2023/06/16 10:54:57;;;;;;;3.30;2.58;;;25.50;51.00;;;;;;5016558;28;20030;-73
2023/06/16 10:57:26;;;;;;;3.28;2.67;;;25.50;51.10;;;;;;5034249;28;20113;-73
2023/06/16 10:59:52;;;;;;;4.70;2.47;;;25.40;51.10;;;;;;5033996;28;20037;-74
2023/06/16 11:02:20;;;;;;;2.17;1.98;;;25.40;51.00;;;;;;5034180;28;20535;-74
2023/06/16 11:05:09;;;;;;;2.20;2.00;;;25.40;51.10;;;;;;5033996;28;20394;-75
2023/06/16 11:07:40;;;;;;;3.45;2.20;;;25.40;50.70;;;;;;5027803;28;20099;-75
2023/06/16 11:10:10;;;;;;;3.85;1.90;;;25.50;51.10;;;;;;5016551;28;20060;-73
2023/06/16 11:12:41;;;;;;;2.15;1.88;;;25.50;51.10;;;;;;5034344;28;20026;-75
2023/06/16 11:15:07;;;;;;;3.30;2.33;;;25.60;51.00;;;;;;5016646;28;20083;-75
2023/06/16 11:17:33;;;;;;;2.78;1.90;;;25.60;51.70;;;;;;5033897;28;20026;-74
2023/06/16 11:20:01;;;;;;;2.10;1.88;;;25.70;51.00;;;;;;5032621;28;20067;-74
2023/06/16 11:22:30;;;;;;;2.85;2.25;;;25.70;50.80;;;;;;5034182;28;20025;-74
2023/06/16 11:24:56;;;;;;;2.88;2.05;;;25.70;50.80;;;;;;5033940;28;20489;-75
2023/06/16 11:27:22;;;;;;;3.63;2.13;;;25.70;50.70;;;;;;5033845;28;20029;-74
2023/06/16 11:29:48;;;;;;;2.45;2.17;;;25.70;50.90;;;;;;5033546;28;20125;-74
2023/06/16 11:32:16;;;;;;;2.58;2.00;;;25.70;51.00;;;;;;5033846;28;20460;-75
2023/06/16 11:34:42;;;;;;;2.85;2.17;;;25.70;50.90;;;;;;5033684;28;20026;-74
2023/06/16 11:37:08;;;;;;;2.65;2.03;;;25.80;50.90;;;;;;5015733;28;20120;-74
2023/06/16 11:39:43;;;;;;;2.65;1.88;;;25.70;50.70;;;;;;5033972;28;20083;-73
2023/06/16 11:42:16;;;;;;;1.73;1.63;;;25.70;50.20;;;;;;5016090;28;20030;-74
2023/06/16 11:44:42;;;;;;;2.60;1.80;;;25.70;50.50;;;;;;5033385;28;20057;-74
2023/06/16 11:47:09;;;;;;;3.63;1.95;;;25.80;50.70;;;;;;5033297;28;20109;-75
2023/06/16 11:49:36;;;;;;;2.70;2.00;;;25.90;50.60;;;;;;5033525;28;20034;-74
2023/06/16 11:52:06;;;;;;;2.42;2.00;;;25.90;50.40;;;;;;5033394;28;20510;-75
2023/06/16 11:54:35;;;;;;;4.18;2.10;;;25.90;50.50;;;;;;5033729;28;20033;-75
2023/06/16 11:57:01;;;;;;;1.98;1.77;;;25.90;50.30;;;;;;5033552;28;20092;-74
2023/06/16 11:59:32;;;;;;;3.95;2.00;;;25.90;50.20;;;;;;5033522;28;20029;-73
2023/06/16 12:01:58;;;;;;;4.10;2.20;;;26.00;50.30;;;;;;5033496;28;20028;-74
2023/06/16 12:04:28;;;;;;;2.10;1.90;;;26.10;50.10;;;;;;5032567;28;20032;-73
2023/06/16 12:06:56;;;;;;;3.25;1.88;;;26.20;50.10;;;;;;5033558;28;20100;-74
2023/06/16 12:09:22;;;;;;;3.30;1.90;;;26.20;50.10;;;;;;5015510;28;20095;-74
2023/06/16 12:11:48;;;;;;;2.40;1.52;;;26.30;50.00;;;;;;5033076;28;20021;-75
2023/06/16 12:14:21;;;;;;;3.15;1.90;;;26.40;49.90;;;;;;5033426;28;20029;-75
2023/06/16 12:16:51;;;;;;;1.98;1.75;;;26.40;49.60;;;;;;5033123;28;20387;-75
2023/06/16 12:19:21;;;;;;;1.80;1.70;;;26.40;49.70;;;;;;5033600;28;20479;-74
2023/06/16 12:21:54;;;;;;;1.92;1.70;;;26.40;49.60;;;;;;5033218;28;20037;-75
2023/06/16 12:24:21;;;;;;;1.90;1.70;;;26.40;49.60;;;;;;5033577;28;20025;-74
2023/06/16 12:26:52;;;;;;;1.90;1.63;;;26.40;49.70;;;;;;5015271;28;20030;-77
2023/06/16 12:29:18;;;;;;;2.05;1.83;;;26.60;49.50;;;;;;5015939;28;20085;-75
2023/06/16 12:31:58;;;;;;;3.63;1.88;;;26.60;49.40;;;;;;5033099;28;20037;-74
2023/06/16 12:34:25;;;;;;;2.55;1.73;;;26.70;49.20;;;;;;5033008;28;20096;-75
2023/06/16 12:36:54;;;;;;;2.00;1.77;;;26.80;49.30;;;;;;5032945;28;20032;-76
2023/06/16 12:39:20;;;;;;;2.92;1.95;;;26.80;49.30;;;;;;5035664;28;20100;-78
2023/06/16 12:42:03;;;;;;;2.50;1.80;;;26.90;49.20;;;;;;5036947;28;20030;-76
2023/06/16 12:44:48;;;;;;;2.95;2.00;;;27.00;48.40;;;;;;5037222;28;20026;-74
2023/06/16 12:47:16;;;;;;;2.70;2.00;;;27.10;48.70;;;;;;5036769;28;20541;-75
2023/06/16 12:49:42;;;;;;;2.40;1.85;;;27.10;48.90;;;;;;5036812;28;20037;-75